Time;durP1;ratioP1;P1;durP2;ratioP2;P2;SDS_P1;SDS_P2;PMS_P1;PMS_P2;Temp;Humidity;BMP_temperature;BMP_pressure;BME280_temperature;BME280_humidity;BME280_pressure;Samples;Min_cycle;Max_cycle;Signal;HPM_P1;HPM_P2
2023/09/29 00:00:47;;;;;;;4.53;2.03;;;21.00;75.50;;;;;;6278988;22;20035;-70
2023/09/29 00:03:15;;;;;;;4.88;1.75;;;21.00;75.40;;;;;;6279523;22;20023;-70
2023/09/29 00:05:43;;;;;;;5.00;1.73;;;21.00;75.40;;;;;;6307422;22;20154;-70
2023/09/29 00:08:17;;;;;;;4.43;1.83;;;20.90;75.40;;;;;;6278554;22;20025;-70
2023/09/29 00:10:45;;;;;;;4.13;1.58;;;20.90;75.30;;;;;;6307072;22;20055;-70
2023/09/29 00:13:13;;;;;;;4.13;1.95;;;20.90;75.30;;;;;;6278884;22;20016;-70
2023/09/29 00:15:39;;;;;;;4.05;1.55;;;20.90;75.30;;;;;;6306700;22;20431;-69
2023/09/29 00:18:08;;;;;;;4.35;1.60;;;20.90;75.30;;;;;;6306477;22;20041;-69
2023/09/29 00:20:36;;;;;;;3.42;1.42;;;20.90;75.30;;;;;;6307595;22;20015;-69
2023/09/29 00:23:02;;;;;;;4.03;1.58;;;20.90;75.30;;;;;;6278393;22;20022;-69
2023/09/29 00:25:28;;;;;;;4.10;1.77;;;20.90;75.30;;;;;;6278874;22;20019;-69
2023/09/29 00:27:57;;;;;;;4.22;1.70;;;20.90;75.30;;;;;;6279474;22;20019;-69
2023/09/29 00:30:22;;;;;;;4.95;1.50;;;20.90;75.20;;;;;;6277635;22;20010;-70
2023/09/29 00:32:52;;;;;;;4.55;1.60;;;20.90;75.30;;;;;;6279452;22;20381;-70
2023/09/29 00:35:24;;;;;;;5.10;1.77;;;20.90;75.20;;;;;;6278848;22;20007;-70
2023/09/29 00:37:51;;;;;;;4.40;1.63;;;20.90;75.30;;;;;;6307160;22;20019;-70
2023/09/29 00:40:16;;;;;;;4.95;1.83;;;20.90;75.20;;;;;;6305825;22;20061;-70
2023/09/29 00:42:43;;;;;;;7.13;1.70;;;20.90;75.20;;;;;;6278222;22;20317;-70
2023/09/29 00:45:09;;;;;;;5.55;1.88;;;20.90;75.20;;;;;;6279104;22;20106;-70
2023/09/29 00:47:38;;;;;;;5.32;1.90;;;20.90;75.20;;;;;;6279317;22;20065;-69
2023/09/29 00:50:07;;;;;;;3.50;1.77;;;20.90;75.20;;;;;;6277614;22;20023;-70
2023/09/29 00:52:33;;;;;;;3.63;1.98;;;20.90;75.20;;;;;;6278616;22;20434;-70
2023/09/29 00:54:59;;;;;;;4.43;2.15;;;20.90;75.20;;;;;;6253665;22;20417;-69
2023/09/29 00:57:25;;;;;;;5.28;1.92;;;20.90;75.20;;;;;;6253017;22;20442;-70
2023/09/29 00:59:51;;;;;;;5.50;2.13;;;20.90;75.20;;;;;;6254042;22;20015;-70
2023/09/29 01:02:17;;;;;;;2.95;1.33;;;20.90;75.20;;;;;;6253470;22;20023;-70
2023/09/29 01:04:48;;;;;;;2.97;1.50;;;20.90;75.20;;;;;;6252685;22;20012;-70
2023/09/29 01:07:15;;;;;;;5.28;1.73;;;20.90;75.10;;;;;;6278419;22;20034;-70
2023/09/29 01:09:41;;;;;;;3.95;1.65;;;20.90;75.20;;;;;;6279651;22;20023;-70
2023/09/29 01:12:09;;;;;;;3.40;1.50;;;20.90;75.10;;;;;;6278253;22;20029;-70
2023/09/29 01:14:35;;;;;;;3.33;1.50;;;20.90;75.10;;;;;;6279343;22;20034;-70
2023/09/29 01:17:01;;;;;;;3.35;1.65;;;20.80;75.10;;;;;;6306895;22;20451;-70
2023/09/29 01:19:26;;;;;;;4.63;1.70;;;20.80;75.10;;;;;;6305305;22;20035;-70
2023/09/29 01:21:52;;;;;;;4.10;1.30;;;20.80;75.10;;;;;;6279316;22;20019;-70
2023/09/29 01:24:19;;;;;;;4.32;1.45;;;20.80;75.10;;;;;;6306631;22;20019;-69
2023/09/29 01:26:44;;;;;;;3.10;1.30;;;20.80;75.10;;;;;;6278381;22;20051;-69
2023/09/29 01:29:11;;;;;;;3.47;1.40;;;20.80;75.10;;;;;;6306629;22;20023;-69
2023/09/29 01:31:41;;;;;;;4.30;1.63;;;20.80;75.00;;;;;;6279041;22;20450;-70
2023/09/29 01:34:07;;;;;;;3.50;1.33;;;20.80;75.00;;;;;;6279222;22;20082;-70
2023/09/29 01:36:32;;;;;;;3.95;1.60;;;20.80;75.70;;;;;;6278553;22;20101;-70
2023/09/29 01:38:58;;;;;;;4.68;1.77;;;20.80;75.00;;;;;;6277620;22;20019;-69
2023/09/29 01:41:24;;;;;;;6.00;1.80;;;20.80;75.00;;;;;;6227905;22;20394;-70
2023/09/29 01:43:50;;;;;;;5.15;1.65;;;20.80;75.00;;;;;;6306952;22;20098;-70
2023/09/29 01:46:15;;;;;;;3.47;1.48;;;20.80;75.00;;;;;;6305112;22;20039;-71
2023/09/29 01:48:41;;;;;;;3.33;1.58;;;20.80;75.00;;;;;;6278895;22;20023;-70
2023/09/29 01:51:11;;;;;;;3.45;1.30;;;20.80;75.00;;;;;;6306135;22;20022;-70
2023/09/29 01:53:37;;;;;;;4.43;1.80;;;20.80;75.00;;;;;;6305869;22;20047;-70
2023/09/29 01:56:02;;;;;;;4.68;1.88;;;20.80;75.00;;;;;;6278879;22;20351;-70
2023/09/29 01:58:28;;;;;;;3.70;1.52;;;20.80;75.00;;;;;;6278902;22;20023;-70
2023/09/29 02:00:54;;;;;;;3.30;1.55;;;20.80;75.00;;;;;;6277426;22;20098;-69
2023/09/29 02:03:20;;;;;;;3.05;1.70;;;20.80;75.00;;;;;;6306071;22;20457;-70
2023/09/29 02:05:49;;;;;;;4.00;1.75;;;20.80;75.00;;;;;;6278857;22;20094;-70
2023/09/29 02:08:14;;;;;;;4.68;1.60;;;20.80;75.00;;;;;;6305428;22;20019;-70
2023/09/29 02:10:40;;;;;;;4.18;1.80;;;20.80;75.00;;;;;;6280471;22;20027;-70
2023/09/29 02:13:07;;;;;;;3.95;1.60;;;20.80;75.00;;;;;;6280854;22;20019;-70
2023/09/29 02:15:34;;;;;;;5.38;1.90;;;20.80;74.90;;;;;;6279969;22;20015;-69
2023/09/29 02:18:06;;;;;;;3.20;1.73;;;20.80;74.90;;;;;;6280402;22;20022;-70
2023/09/29 02:20:31;;;;;;;4.10;1.90;;;20.80;74.90;;;;;;6307743;22;20019;-69
2023/09/29 02:23:00;;;;;;;3.92;1.70;;;20.80;75.00;;;;;;6279907;22;20438;-69
2023/09/29 02:25:26;;;;;;;5.55;1.60;;;20.80;74.90;;;;;;6280206;22;20095;-70
2023/09/29 02:27:59;;;;;;;2.83;1.50;;;20.80;74.90;;;;;;6280775;22;20015;-70
2023/09/29 02:30:25;;;;;;;4.40;1.70;;;20.80;74.90;;;;;;6279308;22;20015;-70
2023/09/29 02:32:52;;;;;;;3.92;1.50;;;20.70;74.90;;;;;;6280478;22;20015;-69
2023/09/29 02:35:17;;;;;;;3.33;1.48;;;20.80;74.90;;;;;;6279167;22;20042;-69
2023/09/29 02:37:43;;;;;;;3.40;1.60;;;20.70;74.80;;;;;;6281148;22;20442;-70
2023/09/29 02:40:11;;;;;;;4.05;1.52;;;20.70;74.80;;;;;;6307480;22;20346;-70
2023/09/29 02:42:36;;;;;;;3.70;1.40;;;20.70;74.90;;;;;;6279648;22;20030;-69
2023/09/29 02:45:02;;;;;;;4.63;1.85;;;20.70;74.80;;;;;;6280677;22;20343;-69
2023/09/29 02:47:28;;;;;;;2.88;1.55;;;20.70;74.90;;;;;;6280712;22;20023;-69
2023/09/29 02:49:57;;;;;;;4.18;1.80;;;20.70;74.80;;;;;;6306823;22;20023;-69
2023/09/29 02:52:22;;;;;;;4.50;1.63;;;20.70;74.80;;;;;;6280308;22;20026;-69
2023/09/29 02:54:49;;;;;;;3.75;1.55;;;20.70;74.80;;;;;;6280513;22;20023;-69
2023/09/29 02:57:20;;;;;;;3.05;1.45;;;20.70;74.80;;;;;;6279333;22;20015;-69
2023/09/29 02:59:46;;;;;;;3.67;1.92;;;20.70;74.80;;;;;;6307674;22;20439;-69
2023/09/29 03:02:12;;;;;;;4.32;1.80;;;20.70;74.80;;;;;;6280136;22;20069;-69
2023/09/29 03:04:39;;;;;;;3.72;1.80;;;20.70;74.80;;;;;;6306924;22;20019;-69
2023/09/29 03:07:05;;;;;;;4.70;1.80;;;20.70;74.80;;;;;;6279912;22;20427;-69
2023/09/29 03:09:33;;;;;;;3.60;1.70;;;20.70;74.80;;;;;;6279867;22;20023;-69
2023/09/29 03:12:00;;;;;;;2.83;1.38;;;20.70;74.80;;;;;;6306939;22;20034;-70
2023/09/29 03:14:26;;;;;;;3.13;1.50;;;20.70;74.80;;;;;;6280048;22;20022;-69
2023/09/29 03:16:53;;;;;;;3.72;1.60;;;20.70;74.80;;;;;;6280380;22;20007;-69
2023/09/29 03:19:20;;;;;;;6.45;1.70;;;20.70;74.80;;;;;;6278991;22;20029;-70
2023/09/29 03:21:45;;;;;;;2.65;1.50;;;20.70;74.80;;;;;;6279766;22;20019;-70
2023/09/29 03:24:11;;;;;;;3.30;1.73;;;20.70;74.80;;;;;;6306763;22;20423;-70
2023/09/29 03:26:39;;;;;;;3.67;1.50;;;20.70;74.80;;;;;;6279512;22;20320;-69
2023/09/29 03:29:05;;;;;;;3.40;1.60;;;20.70;74.80;;;;;;6280097;22;20090;-69
2023/09/29 03:31:31;;;;;;;3.55;1.40;;;20.70;74.80;;;;;;6278945;22;20149;-69
2023/09/29 03:33:56;;;;;;;3.58;1.75;;;20.70;74.80;;;;;;6307766;22;20435;-69
2023/09/29 03:36:22;;;;;;;3.67;1.67;;;20.70;74.80;;;;;;6279514;22;20016;-70
2023/09/29 03:38:48;;;;;;;4.47;1.60;;;20.60;74.70;;;;;;6279133;22;20047;-70
2023/09/29 03:41:13;;;;;;;3.35;1.48;;;20.70;74.80;;;;;;6279558;22;20030;-70
2023/09/29 03:43:39;;;;;;;3.92;1.80;;;20.70;74.80;;;;;;6280187;22;20023;-70
2023/09/29 03:46:06;;;;;;;2.97;1.50;;;20.70;74.80;;;;;;6279241;22;20019;-70
2023/09/29 03:48:31;;;;;;;3.60;1.63;;;20.70;74.80;;;;;;6279397;22;20423;-69
2023/09/29 03:50:57;;;;;;;3.95;1.92;;;20.70;74.80;;;;;;6306612;22;20024;-69
2023/09/29 03:53:28;;;;;;;4.85;2.22;;;20.60;74.80;;;;;;6278217;22;20019;-69
2023/09/29 03:55:54;;;;;;;3.03;1.70;;;20.70;74.80;;;;;;6279777;22;20019;-69
2023/09/29 03:58:19;;;;;;;4.07;1.88;;;20.70;74.80;;;;;;6279663;22;20027;-70
2023/09/29 04:00:45;;;;;;;4.55;1.75;;;20.70;74.70;;;;;;6278678;22;20347;-68
2023/09/29 04:03:10;;;;;;;3.35;1.60;;;20.70;74.80;;;;;;6279463;22;20022;-70
2023/09/29 04:05:39;;;;;;;4.05;1.77;;;20.60;74.70;;;;;;6306579;22;20015;-70
2023/09/29 04:08:05;;;;;;;2.92;1.70;;;20.70;74.70;;;;;;6278611;22;20098;-69
2023/09/29 04:10:30;;;;;;;5.03;1.70;;;20.60;74.70;;;;;;6306891;22;20446;-69
2023/09/29 04:12:56;;;;;;;4.35;1.50;;;20.60;74.70;;;;;;6307116;22;20042;-69
2023/09/29 04:15:23;;;;;;;3.80;1.80;;;20.60;74.70;;;;;;6304774;22;20023;-69
2023/09/29 04:17:49;;;;;;;4.67;1.87;;;20.60;74.70;;;;;;6307167;22;20522;-69
2023/09/29 04:20:15;;;;;;;3.85;1.70;;;20.60;74.70;;;;;;6306639;22;20050;-69
2023/09/29 04:22:41;;;;;;;4.40;1.63;;;20.60;74.70;;;;;;6278576;22;20098;-69
2023/09/29 04:25:10;;;;;;;4.10;1.85;;;20.60;74.70;;;;;;6306619;22;20062;-69
2023/09/29 04:27:36;;;;;;;4.30;1.63;;;20.60;74.70;;;;;;6278622;22;20072;-70
2023/09/29 04:30:04;;;;;;;3.50;1.65;;;20.60;74.70;;;;;;6307072;22;20450;-69
2023/09/29 04:32:30;;;;;;;4.32;1.60;;;20.60;74.70;;;;;;6279072;22;20023;-69
2023/09/29 04:34:55;;;;;;;2.85;1.65;;;20.60;74.70;;;;;;6278665;22;20495;-70
2023/09/29 04:37:21;;;;;;;4.20;1.63;;;20.60;74.70;;;;;;6306194;22;20102;-70
2023/09/29 04:39:46;;;;;;;3.35;2.00;;;20.60;74.70;;;;;;6279121;22;20015;-69
2023/09/29 04:42:12;;;;;;;3.05;1.42;;;20.60;74.70;;;;;;6278202;22;20015;-69
2023/09/29 04:44:38;;;;;;;2.70;1.67;;;20.60;74.70;;;;;;6279606;22;20477;-69
2023/09/29 04:47:04;;;;;;;3.50;1.88;;;20.60;74.70;;;;;;6279329;22;20482;-69
2023/09/29 04:49:29;;;;;;;3.55;1.70;;;20.60;75.30;;;;;;6305568;22;20023;-69
2023/09/29 04:51:55;;;;;;;4.45;1.77;;;20.60;74.70;;;;;;6306710;22;20336;-69
2023/09/29 04:54:21;;;;;;;4.32;1.67;;;20.60;74.70;;;;;;6306534;22;20042;-69
2023/09/29 04:56:46;;;;;;;4.32;1.70;;;20.60;74.70;;;;;;6278146;22;20069;-69
2023/09/29 04:59:14;;;;;;;;;;;20.60;74.70;;;;;;6279461;22;20023;-69
2023/09/29 05:01:40;;;;;;;4.03;1.80;;;20.60;74.60;;;;;;6279268;22;20386;-69
2023/09/29 05:04:05;;;;;;;2.92;1.50;;;20.60;74.70;;;;;;6278246;22;20011;-69
2023/09/29 05:06:31;;;;;;;3.00;1.80;;;20.60;74.70;;;;;;6279042;22;20064;-69
2023/09/29 05:08:57;;;;;;;3.50;1.70;;;20.60;74.70;;;;;;6279445;22;20019;-69
2023/09/29 05:11:24;;;;;;;3.45;1.70;;;20.60;74.70;;;;;;6278011;22;20053;-68
2023/09/29 05:13:49;;;;;;;4.28;2.03;;;20.60;74.70;;;;;;6306666;22;20454;-69
2023/09/29 05:16:16;;;;;;;5.20;2.10;;;20.60;74.70;;;;;;6306684;22;20034;-69
2023/09/29 05:18:42;;;;;;;4.05;2.00;;;20.60;74.70;;;;;;6278119;22;20077;-69
2023/09/29 05:21:08;;;;;;;3.05;1.67;;;20.60;74.70;;;;;;6306029;22;20091;-69
2023/09/29 05:23:34;;;;;;;3.08;1.65;;;20.60;74.70;;;;;;6306480;22;20043;-69
2023/09/29 05:26:02;;;;;;;2.95;1.65;;;20.60;74.70;;;;;;6277976;22;20031;-69
2023/09/29 05:28:28;;;;;;;4.82;1.83;;;20.60;74.70;;;;;;6306410;22;20470;-69
2023/09/29 05:30:54;;;;;;;4.68;1.70;;;20.60;74.70;;;;;;6304262;22;20023;-69
2023/09/29 05:33:23;;;;;;;3.65;1.80;;;20.60;74.70;;;;;;6278602;22;20023;-69
2023/09/29 05:35:49;;;;;;;3.80;1.92;;;20.60;74.70;;;;;;6279039;22;20011;-70
2023/09/29 05:38:14;;;;;;;4.80;1.77;;;20.60;74.70;;;;;;6278094;22;20331;-69
2023/09/29 05:40:40;;;;;;;3.10;1.70;;;20.60;74.70;;;;;;6279074;22;20043;-69
2023/09/29 05:43:09;;;;;;;3.55;1.75;;;20.50;74.70;;;;;;6279234;22;20011;-69
2023/09/29 05:45:38;;;;;;;3.60;1.80;;;20.50;74.70;;;;;;6280110;22;20015;-69
2023/09/29 05:48:04;;;;;;;3.10;1.75;;;20.60;74.70;;;;;;6281241;22;20350;-70
2023/09/29 05:50:30;;;;;;;4.28;2.17;;;20.50;74.60;;;;;;6280024;22;20022;-70
2023/09/29 05:52:56;;;;;;;2.83;1.63;;;20.50;74.60;;;;;;6279727;22;20019;-70
2023/09/29 05:55:22;;;;;;;3.28;1.80;;;20.50;74.70;;;;;;6280852;22;20018;-70
2023/09/29 05:57:49;;;;;;;3.97;1.83;;;20.50;74.70;;;;;;6281017;22;20026;-70
2023/09/29 06:00:15;;;;;;;4.57;2.13;;;20.50;74.60;;;;;;6279771;22;20438;-70
2023/09/29 06:02:41;;;;;;;4.43;2.10;;;20.50;74.70;;;;;;6280740;22;20023;-67
2023/09/29 06:05:07;;;;;;;4.53;1.90;;;20.50;74.70;;;;;;6281235;22;20026;-66
2023/09/29 06:07:33;;;;;;;3.97;1.95;;;20.50;74.70;;;;;;6280379;22;20029;-67
2023/09/29 06:09:58;;;;;;;4.88;1.90;;;20.50;74.70;;;;;;6308176;22;20102;-66
2023/09/29 06:12:24;;;;;;;5.50;1.60;;;20.50;74.70;;;;;;6308212;22;20011;-67
2023/09/29 06:14:49;;;;;;;6.13;1.83;;;20.60;74.70;;;;;;6280114;22;20027;-66
2023/09/29 06:17:15;;;;;;;3.78;1.80;;;20.50;74.70;;;;;;6308504;22;20033;-66
2023/09/29 06:19:43;;;;;;;3.95;2.03;;;20.60;74.80;;;;;;6307783;22;20015;-67
2023/09/29 06:22:09;;;;;;;;;;;20.50;74.80;;;;;;6307684;22;20098;-65
2023/09/29 06:24:34;;;;;;;6.32;2.38;;;20.50;74.90;;;;;;6280620;22;19950;-65
2023/09/29 06:27:00;;;;;;;6.15;2.08;;;20.60;75.70;;;;;;6280690;22;20023;-68
2023/09/29 06:29:25;;;;;;;4.35;2.10;;;20.60;75.20;;;;;;6279935;22;20012;-68
2023/09/29 06:31:53;;;;;;;4.75;2.10;;;20.60;75.30;;;;;;6255403;22;20395;-67
2023/09/29 06:34:19;;;;;;;5.90;2.35;;;20.60;75.30;;;;;;6279424;22;20019;-67
2023/09/29 06:36:44;;;;;;;4.70;2.30;;;20.60;75.40;;;;;;6255002;22;20549;-66
2023/09/29 06:39:12;;;;;;;5.28;2.13;;;20.60;75.40;;;;;;6307715;22;20015;-66
2023/09/29 06:41:38;;;;;;;3.53;1.63;;;20.60;75.50;;;;;;6279672;22;20057;-65
2023/09/29 06:44:04;;;;;;;5.85;2.13;;;20.60;75.50;;;;;;6308683;22;20011;-65
2023/09/29 06:46:29;;;;;;;5.07;2.05;;;20.60;75.50;;;;;;6280428;22;20081;-66
2023/09/29 06:48:55;;;;;;;4.63;2.00;;;20.70;75.60;;;;;;6307152;22;20019;-67
2023/09/29 06:51:21;;;;;;;4.63;2.30;;;20.70;75.60;;;;;;6280099;22;20016;-67
2023/09/29 06:53:46;;;;;;;7.05;2.40;;;20.70;75.60;;;;;;6280516;22;20023;-69
2023/09/29 06:56:12;;;;;;;4.70;2.20;;;20.70;75.70;;;;;;6279067;22;20011;-68
2023/09/29 06:58:37;;;;;;;7.70;2.55;;;20.70;75.70;;;;;;6308026;22;20019;-67
2023/09/29 07:01:03;;;;;;;6.47;2.30;;;20.70;75.70;;;;;;6280390;22;20015;-69
2023/09/29 07:03:30;;;;;;;2.53;1.80;;;20.70;75.70;;;;;;6279505;22;20068;-66
2023/09/29 07:05:57;;;;;;;3.53;1.88;;;20.70;75.70;;;;;;6277238;22;20016;-69
2023/09/29 07:08:23;;;;;;;4.97;2.30;;;20.70;75.80;;;;;;6280195;22;20019;-69
2023/09/29 07:10:48;;;;;;;4.07;1.95;;;20.70;75.80;;;;;;6279879;22;20133;-69
2023/09/29 07:13:14;;;;;;;3.90;2.40;;;20.70;75.80;;;;;;6307531;22;20316;-71
2023/09/29 07:15:40;;;;;;;5.22;2.05;;;20.70;75.90;;;;;;6280339;22;20041;-65
2023/09/29 07:18:10;;;;;;;3.33;1.98;;;20.70;75.90;;;;;;6279533;22;20023;-69
2023/09/29 07:20:37;;;;;;;6.13;2.67;;;20.70;75.80;;;;;;6280533;22;20426;-69
2023/09/29 07:23:03;;;;;;;4.68;2.15;;;20.70;75.90;;;;;;6280431;22;20022;-67
2023/09/29 07:25:29;;;;;;;5.10;2.22;;;20.70;75.90;;;;;;6278874;22;20019;-69
2023/09/29 07:27:55;;;;;;;5.13;2.63;;;20.70;75.90;;;;;;6279603;22;20022;-69
2023/09/29 07:30:20;;;;;;;4.68;2.22;;;20.70;76.00;;;;;;6278701;22;20023;-70
2023/09/29 07:32:46;;;;;;;4.88;2.10;;;20.70;76.00;;;;;;6280383;22;20050;-64
2023/09/29 07:35:12;;;;;;;5.47;2.15;;;20.70;76.00;;;;;;6306750;22;20400;-67
2023/09/29 07:37:38;;;;;;;6.32;2.10;;;20.70;76.00;;;;;;6278653;22;20016;-68
2023/09/29 07:40:09;;;;;;;5.50;2.30;;;20.70;76.00;;;;;;6280232;22;20015;-69
2023/09/29 07:42:35;;;;;;;6.18;2.30;;;20.70;76.00;;;;;;6255376;22;20027;-70
2023/09/29 07:45:01;;;;;;;6.65;2.45;;;20.70;76.00;;;;;;6306792;22;20023;-68
2023/09/29 07:47:26;;;;;;;6.32;2.40;;;20.70;75.90;;;;;;6280047;22;20098;-67
2023/09/29 07:49:52;;;;;;;7.05;2.40;;;20.70;76.00;;;;;;6307894;22;20106;-69
2023/09/29 07:52:18;;;;;;;6.90;2.30;;;20.80;76.00;;;;;;6306451;22;20011;-67
2023/09/29 07:54:44;;;;;;;6.40;2.45;;;20.70;76.00;;;;;;6307927;22;20019;-67
2023/09/29 07:57:09;;;;;;;6.40;2.72;;;20.80;76.00;;;;;;6279297;22;20025;-68
2023/09/29 07:59:35;;;;;;;5.35;2.55;;;20.80;76.00;;;;;;6278750;22;20084;-69
2023/09/29 08:02:00;;;;;;;3.70;2.40;;;20.80;76.00;;;;;;6279626;22;20016;-68
2023/09/29 08:04:26;;;;;;;4.60;2.65;;;20.80;76.00;;;;;;6279535;22;20064;-68
2023/09/29 08:06:52;;;;;;;7.63;2.85;;;20.80;76.00;;;;;;6278613;22;20102;-67
2023/09/29 08:09:17;;;;;;;7.53;2.58;;;20.80;76.00;;;;;;6278656;22;20015;-65
2023/09/29 08:11:43;;;;;;;5.70;2.40;;;20.80;76.10;;;;;;6279719;22;20023;-66
2023/09/29 08:14:09;;;;;;;5.60;2.17;;;20.80;76.10;;;;;;6278292;22;20354;-70
2023/09/29 08:16:35;;;;;;;3.90;2.08;;;20.80;76.00;;;;;;6280504;22;20015;-67
2023/09/29 08:19:01;;;;;;;6.70;2.20;;;20.80;76.00;;;;;;6279984;22;20058;-66
2023/09/29 08:21:26;;;;;;;4.20;2.17;;;20.80;76.00;;;;;;6278596;22;20439;-66
2023/09/29 08:23:52;;;;;;;4.70;2.47;;;20.80;76.00;;;;;;6279562;22;20026;-66
2023/09/29 08:26:17;;;;;;;5.70;2.33;;;20.80;75.90;;;;;;6306580;22;20085;-66
2023/09/29 08:28:43;;;;;;;5.32;2.58;;;20.80;75.90;;;;;;6306496;22;20023;-72
2023/09/29 08:31:15;;;;;;;5.70;2.50;;;20.80;75.90;;;;;;6279218;22;20031;-67
2023/09/29 08:33:41;;;;;;;3.50;2.15;;;20.80;75.90;;;;;;6306029;22;20469;-66
2023/09/29 08:36:07;;;;;;;7.97;2.20;;;20.80;75.90;;;;;;6307368;22;20052;-69
2023/09/29 08:38:33;;;;;;;4.60;2.15;;;20.80;75.90;;;;;;6306570;22;20440;-67
2023/09/29 08:40:58;;;;;;;7.03;2.60;;;20.80;75.90;;;;;;6305966;22;20415;-67
2023/09/29 08:43:25;;;;;;;5.03;2.20;;;20.80;76.00;;;;;;6279128;22;20047;-67
2023/09/29 08:45:51;;;;;;;7.40;2.40;;;20.80;76.00;;;;;;6229347;22;20031;-67
2023/09/29 08:48:16;;;;;;;7.78;2.50;;;20.80;76.00;;;;;;6253028;22;20015;-67
2023/09/29 08:50:42;;;;;;;7.65;2.22;;;20.80;76.00;;;;;;6279546;22;20019;-68
2023/09/29 08:53:10;;;;;;;6.88;2.53;;;20.80;76.00;;;;;;6254167;22;20019;-68
2023/09/29 08:55:37;;;;;;;5.27;2.50;;;20.80;76.00;;;;;;6252717;22;20050;-67
2023/09/29 08:58:02;;;;;;;4.72;2.15;;;20.80;76.00;;;;;;6278744;22;20038;-67
2023/09/29 09:00:30;;;;;;;5.43;2.47;;;20.90;76.10;;;;;;6279009;22;20435;-67
2023/09/29 09:02:58;;;;;;;6.22;2.78;;;20.90;76.10;;;;;;6253581;22;20073;-67
2023/09/29 09:05:23;;;;;;;3.70;1.90;;;20.90;76.70;;;;;;6306143;22;20072;-67
2023/09/29 09:07:50;;;;;;;7.00;2.90;;;20.90;76.10;;;;;;6279370;22;20015;-67
2023/09/29 09:10:15;;;;;;;5.47;2.45;;;20.90;76.10;;;;;;6305752;22;20161;-67
2023/09/29 09:12:43;;;;;;;4.97;2.50;;;20.90;76.10;;;;;;6279676;22;20458;-66
2023/09/29 09:15:09;;;;;;;8.00;2.90;;;20.90;76.10;;;;;;6279277;22;20023;-66
2023/09/29 09:17:35;;;;;;;5.03;2.45;;;20.90;76.10;;;;;;6278681;22;20023;-67
2023/09/29 09:20:01;;;;;;;4.78;2.03;;;21.00;76.10;;;;;;6281024;22;20051;-67
2023/09/29 09:22:27;;;;;;;4.53;2.53;;;21.00;76.10;;;;;;6281199;22;20439;-67
2023/09/29 09:24:59;;;;;;;6.80;2.42;;;21.00;76.00;;;;;;6279993;22;20011;-66
2023/09/29 09:27:25;;;;;;;5.53;2.45;;;21.00;76.00;;;;;;6308433;22;20381;-67
2023/09/29 09:29:51;;;;;;;4.00;2.20;;;21.00;76.00;;;;;;6281073;22;20019;-67
2023/09/29 09:32:26;;;;;;;4.30;2.25;;;21.00;76.00;;;;;;6280482;22;20043;-67
2023/09/29 09:34:52;;;;;;;4.53;2.25;;;21.00;76.00;;;;;;6280857;22;20102;-67
2023/09/29 09:37:25;;;;;;;4.78;2.10;;;21.00;76.00;;;;;;6278884;22;20049;-66
2023/09/29 09:39:53;;;;;;;4.07;2.22;;;21.00;76.00;;;;;;6306586;22;20342;-66
2023/09/29 09:42:20;;;;;;;5.20;2.30;;;21.00;76.10;;;;;;6253204;22;20453;-66
2023/09/29 09:44:45;;;;;;;5.32;2.10;;;21.00;76.00;;;;;;6253693;22;20042;-66
2023/09/29 09:47:14;;;;;;;8.05;2.33;;;21.10;76.00;;;;;;6278835;22;20023;-68
2023/09/29 09:49:44;;;;;;;4.82;2.42;;;21.10;76.00;;;;;;6279849;22;20090;-66
2023/09/29 09:52:12;;;;;;;4.88;1.98;;;21.10;76.00;;;;;;6253997;22;20027;-67
2023/09/29 09:54:54;;;;;;;;;;;21.10;76.00;;;;;;6256846;22;20011;-66
2023/09/29 09:57:35;;;;;;;2.92;1.85;;;21.10;76.10;;;;;;6280026;22;19919;-66
2023/09/29 10:00:08;;;;;;;5.78;2.40;;;21.10;76.00;;;;;;6306957;22;20030;-65
2023/09/29 10:02:44;;;;;;;3.38;1.70;;;21.10;76.00;;;;;;6281231;22;20053;-62
2023/09/29 10:05:23;;;;;;;8.52;2.42;;;21.10;75.90;;;;;;6230606;22;20481;-66
2023/09/29 10:07:55;;;;;;;3.75;2.67;;;21.10;75.90;;;;;;6257512;22;20019;-66
2023/09/29 10:10:34;;;;;;;5.88;2.53;;;21.10;75.90;;;;;;6280886;22;20098;-66
2023/09/29 10:13:05;;;;;;;4.40;2.15;;;21.10;75.90;;;;;;6307984;22;20030;-66
2023/09/29 10:15:32;;;;;;;4.00;2.10;;;21.10;75.80;;;;;;6280241;22;20559;-66
2023/09/29 10:18:13;;;;;;;4.55;2.22;;;21.10;75.80;;;;;;6281150;22;20332;-66
2023/09/29 10:20:38;;;;;;;6.25;2.40;;;21.20;75.90;;;;;;6279699;22;20529;-66
2023/09/29 10:23:06;;;;;;;4.93;2.30;;;21.10;75.90;;;;;;6280579;22;20043;-66
2023/09/29 10:25:35;;;;;;;5.65;2.30;;;21.10;76.00;;;;;;6306954;22;20023;-66
2023/09/29 10:28:05;;;;;;;5.75;2.47;;;21.10;76.00;;;;;;6307266;22;20015;-63
2023/09/29 10:30:30;;;;;;;4.78;2.35;;;21.10;76.10;;;;;;6279509;22;20019;-65
2023/09/29 10:33:13;;;;;;;6.07;2.20;;;21.10;76.40;;;;;;6280226;22;20088;-64
2023/09/29 10:35:46;;;;;;;6.10;2.40;;;21.20;76.60;;;;;;6280381;22;20060;-66
2023/09/29 10:38:29;;;;;;;5.60;2.25;;;21.20;76.70;;;;;;6278151;22;20023;-66
2023/09/29 10:40:55;;;;;;;6.65;2.25;;;21.20;76.80;;;;;;6279365;22;20012;-65
2023/09/29 10:43:23;;;;;;;7.35;2.42;;;21.20;77.50;;;;;;6254659;22;20140;-64
2023/09/29 10:45:50;;;;;;;5.13;2.28;;;21.20;76.90;;;;;;6280885;22;20020;-65
2023/09/29 10:48:16;;;;;;;3.83;2.40;;;21.20;77.00;;;;;;6279233;22;20443;-64
2023/09/29 10:50:42;;;;;;;6.20;2.10;;;21.20;77.00;;;;;;6280530;22;20037;-66
2023/09/29 10:53:07;;;;;;;5.65;2.15;;;21.20;77.00;;;;;;6307419;22;20052;-67
2023/09/29 10:55:47;;;;;;;5.68;2.28;;;21.20;77.00;;;;;;6279768;22;20098;-67
2023/09/29 10:58:13;;;;;;;5.65;2.17;;;21.20;77.00;;;;;;6307492;22;20490;-66
2023/09/29 11:00:51;;;;;;;5.25;2.20;;;21.20;77.00;;;;;;6280154;22;20015;-66
2023/09/29 11:03:21;;;;;;;5.88;2.55;;;21.20;77.00;;;;;;6279255;22;20019;-66
2023/09/29 11:05:48;;;;;;;4.32;2.28;;;21.20;77.00;;;;;;6229883;22;20084;-68
2023/09/29 11:08:14;;;;;;;5.60;2.70;;;21.20;77.00;;;;;;6279800;22;20459;-67
2023/09/29 11:10:39;;;;;;;5.88;2.25;;;21.20;77.00;;;;;;6279382;22;20096;-68
2023/09/29 11:13:15;;;;;;;4.78;1.98;;;21.20;77.00;;;;;;6280160;22;20019;-66
2023/09/29 11:15:40;;;;;;;6.50;2.38;;;21.20;77.00;;;;;;6230476;22;20094;-68
2023/09/29 11:18:06;;;;;;;6.18;2.22;;;21.20;77.00;;;;;;6280377;22;20054;-67
2023/09/29 11:20:32;;;;;;;4.03;2.20;;;21.20;77.00;;;;;;6279987;22;20427;-67
2023/09/29 11:23:11;;;;;;;5.47;2.60;;;21.20;77.10;;;;;;6279580;22;20019;-66
2023/09/29 11:25:47;;;;;;;4.13;2.30;;;21.20;77.10;;;;;;6307666;22;20015;-67
2023/09/29 11:28:13;;;;;;;4.30;2.53;;;21.20;77.10;;;;;;6279737;22;20097;-63
2023/09/29 11:30:39;;;;;;;4.50;1.92;;;21.20;77.00;;;;;;6279236;22;20015;-64
2023/09/29 11:33:06;;;;;;;5.88;2.40;;;21.20;77.00;;;;;;6280015;22;20031;-64
2023/09/29 11:35:32;;;;;;;7.72;2.85;;;21.20;76.90;;;;;;6280015;22;20011;-63
2023/09/29 11:37:57;;;;;;;6.05;2.50;;;21.20;77.00;;;;;;6306796;22;20088;-65
2023/09/29 11:40:23;;;;;;;4.40;2.45;;;21.20;77.00;;;;;;6279615;22;20347;-63
2023/09/29 11:42:49;;;;;;;4.50;2.30;;;21.20;77.00;;;;;;6307101;22;20019;-63
2023/09/29 11:45:15;;;;;;;6.32;2.45;;;21.20;77.00;;;;;;6306085;22;20093;-63
2023/09/29 11:47:41;;;;;;;5.43;2.38;;;21.30;77.00;;;;;;6280271;22;20123;-65
2023/09/29 11:50:10;;;;;;;6.55;2.45;;;21.30;77.00;;;;;;6279939;22;20480;-62
2023/09/29 11:52:39;;;;;;;5.72;2.40;;;21.30;77.00;;;;;;6278951;22;20015;-66
2023/09/29 11:55:08;;;;;;;7.03;2.85;;;21.30;77.00;;;;;;6278556;22;20015;-66
2023/09/29 11:57:37;;;;;;;6.65;2.50;;;21.30;77.00;;;;;;6279470;22;20019;-66
2023/09/29 12:00:08;;;;;;;7.82;2.30;;;21.30;77.10;;;;;;6307134;22;20019;-66
2023/09/29 12:02:34;;;;;;;5.15;2.50;;;21.30;77.00;;;;;;6279621;22;20060;-66
2023/09/29 12:05:00;;;;;;;5.05;2.35;;;21.30;77.00;;;;;;6279305;22;20018;-66
2023/09/29 12:07:26;;;;;;;5.07;2.50;;;21.40;77.10;;;;;;6278798;22;20569;-67
2023/09/29 12:09:52;;;;;;;7.07;2.65;;;21.30;77.00;;;;;;6307383;22;20331;-67
2023/09/29 12:12:18;;;;;;;6.28;2.58;;;21.30;77.00;;;;;;6278608;22;20022;-67
2023/09/29 12:14:44;;;;;;;6.15;2.45;;;21.40;77.00;;;;;;6307802;22;20042;-66
2023/09/29 12:17:09;;;;;;;6.53;2.55;;;21.40;77.60;;;;;;6307368;22;20427;-67
2023/09/29 12:19:35;;;;;;;7.32;2.20;;;21.40;77.10;;;;;;6279042;22;20072;-67
2023/09/29 12:22:00;;;;;;;4.22;2.20;;;21.40;77.00;;;;;;6307588;22;20030;-67
2023/09/29 12:24:26;;;;;;;4.90;2.47;;;21.40;77.10;;;;;;6279329;22;20023;-66
2023/09/29 12:26:52;;;;;;;7.32;2.70;;;21.30;77.00;;;;;;6278993;22;20019;-66
2023/09/29 12:29:17;;;;;;;4.40;2.53;;;21.40;77.10;;;;;;6279665;22;20061;-67
2023/09/29 12:31:43;;;;;;;5.22;2.47;;;21.40;77.10;;;;;;6279787;22;20401;-67
2023/09/29 12:34:08;;;;;;;4.15;2.30;;;21.30;77.00;;;;;;6278750;22;20090;-67
2023/09/29 12:36:34;;;;;;;6.70;2.38;;;21.30;77.10;;;;;;6279954;22;20377;-67
2023/09/29 12:38:59;;;;;;;4.53;2.33;;;21.30;77.10;;;;;;6279877;22;20019;-64
2023/09/29 12:41:25;;;;;;;5.82;2.83;;;21.30;77.20;;;;;;6278538;22;20097;-64
2023/09/29 12:43:51;;;;;;;4.28;2.40;;;21.30;77.20;;;;;;6279725;22;20019;-65
2023/09/29 12:46:17;;;;;;;7.30;2.50;;;21.30;77.20;;;;;;6279470;22;20019;-66